Terminal Aerodrome Forecast
Issued by NWS

Home | Current Version | Previous Version | Text Only | Print | Product List | Glossary On
Versions: 1 2 3 4 5 6 7 8 9 10 11 12 13 14 15 16 17 18 19 20 21 22 23 24 25
000
FTUS46 KSEW 270500
TAFSEA
TAF
KSEA 270521Z 2706/2812 19008KT P6SM -RA SCT025 BKN040 OVC080
     FM270800 18013G20KT P6SM -RA SCT015 OVC025
     FM272000 20015G25KT P6SM -RA SCT025 OVC035=

USA.gov is the U.S. government's official web portal to all federal, state and local government web resources and services.